createdAt,value
2023-05-17T00:00:46.314Z,9.53
2023-05-17T00:03:12.838Z,9.49
2023-05-17T00:05:39.426Z,9.42
2023-05-17T00:08:06.042Z,9.44
2023-05-17T00:10:32.631Z,9.40
2023-05-17T00:12:59.153Z,9.36
2023-05-17T00:15:25.712Z,9.37
2023-05-17T00:17:52.351Z,9.35
2023-05-17T00:20:18.967Z,9.35
2023-05-17T00:22:47.246Z,9.36
2023-05-17T00:25:13.884Z,9.34
2023-05-17T00:27:40.361Z,9.32
2023-05-17T00:30:07.586Z,9.30
2023-05-17T00:32:34.101Z,9.30
2023-05-17T00:35:00.760Z,9.27
2023-05-17T00:37:27.311Z,9.23
2023-05-17T00:39:54.203Z,9.21
2023-05-17T00:42:20.898Z,9.20
2023-05-17T00:44:47.412Z,9.17
2023-05-17T00:47:13.988Z,9.13
2023-05-17T00:49:41.107Z,9.10
2023-05-17T00:52:07.628Z,9.05
2023-05-17T00:54:34.894Z,9.00
2023-05-17T00:57:01.522Z,8.94
2023-05-17T00:59:29.386Z,8.95
2023-05-17T01:01:56.564Z,8.89
2023-05-17T01:04:23.212Z,8.94
2023-05-17T01:06:50.201Z,8.97
2023-05-17T01:09:17.286Z,9.01
2023-05-17T01:11:58.923Z,9.01
2023-05-17T01:14:41.499Z,8.98
2023-05-17T01:17:22.825Z,8.99
2023-05-17T01:20:01.926Z,8.96
2023-05-17T01:22:37.766Z,8.92
2023-05-17T01:25:35.009Z,8.97
2023-05-17T01:28:03.539Z,8.95
2023-05-17T01:30:33.729Z,8.98
2023-05-17T01:33:02.759Z,8.98
2023-05-17T01:35:29.716Z,8.95
2023-05-17T01:37:56.521Z,8.96
2023-05-17T01:40:24.458Z,8.91
2023-05-17T01:43:08.466Z,8.92
2023-05-17T01:45:44.134Z,9.00
2023-05-17T01:48:40.113Z,8.97
2023-05-17T01:51:09.458Z,8.93
2023-05-17T01:53:36.119Z,8.96
2023-05-17T01:56:07.727Z,8.98
2023-05-17T01:58:44.251Z,9.02
2023-05-17T02:01:11.464Z,9.09
2023-05-17T02:03:38.018Z,9.07
2023-05-17T02:06:04.799Z,9.07
2023-05-17T02:08:31.360Z,9.10
2023-05-17T02:10:57.812Z,9.09
2023-05-17T02:13:24.330Z,9.14
2023-05-17T02:15:50.894Z,9.12
2023-05-17T02:18:17.542Z,9.16
2023-05-17T02:20:44.164Z,9.12
2023-05-17T02:23:11.369Z,9.19
2023-05-17T02:25:37.849Z,9.19
2023-05-17T02:28:04.522Z,9.21
2023-05-17T02:30:31.200Z,9.23
2023-05-17T02:32:58.286Z,9.21
2023-05-17T02:35:25.140Z,9.21
2023-05-17T02:37:52.066Z,9.23
2023-05-17T02:40:18.680Z,9.28
2023-05-17T02:42:45.276Z,9.30
2023-05-17T02:45:11.794Z,9.32
2023-05-17T02:47:38.479Z,9.37
2023-05-17T02:50:05.485Z,9.37
2023-05-17T02:52:32.129Z,9.38
2023-05-17T02:54:58.666Z,9.38
2023-05-17T02:57:25.154Z,9.40
2023-05-17T02:59:51.747Z,9.45
2023-05-17T03:02:18.365Z,9.50
2023-05-17T03:04:45.075Z,9.52
2023-05-17T03:07:11.684Z,9.56
2023-05-17T03:09:38.189Z,9.59
2023-05-17T03:12:04.991Z,9.65
2023-05-17T03:14:31.474Z,9.76
2023-05-17T03:16:57.968Z,9.82
2023-05-17T03:19:24.675Z,9.86
2023-05-17T03:21:51.280Z,9.88
2023-05-17T03:24:17.911Z,9.88
2023-05-17T03:26:44.592Z,9.91
2023-05-17T03:29:11.688Z,9.89
2023-05-17T03:31:38.160Z,9.86
2023-05-17T03:34:04.740Z,9.87
2023-05-17T03:36:38.253Z,9.88
2023-05-17T03:39:04.999Z,9.87
2023-05-17T03:41:32.210Z,9.90
2023-05-17T03:43:58.641Z,9.90
2023-05-17T03:46:25.168Z,9.92
2023-05-17T03:48:51.778Z,9.94
2023-05-17T03:51:18.529Z,9.97
2023-05-17T03:53:45.056Z,9.94
2023-05-17T03:56:11.746Z,9.97
2023-05-17T03:58:38.483Z,10.02
2023-05-17T04:01:05.302Z,10.03
2023-05-17T04:03:31.991Z,10.02
2023-05-17T04:06:07.012Z,10.04
2023-05-17T04:08:34.635Z,10.06
2023-05-17T04:11:10.031Z,10.04
2023-05-17T04:13:39.401Z,10.02
2023-05-17T04:16:07.328Z,10.04
2023-05-17T04:18:36.256Z,10.01
2023-05-17T04:21:03.689Z,9.99
2023-05-17T04:23:30.859Z,9.94
2023-05-17T04:25:58.498Z,9.88
2023-05-17T04:28:25.953Z,9.86
2023-05-17T04:30:52.989Z,9.80
2023-05-17T04:33:20.040Z,9.77
2023-05-17T04:35:46.789Z,9.77
2023-05-17T04:38:13.542Z,9.78
2023-05-17T04:40:40.282Z,9.76
2023-05-17T04:43:07.066Z,9.75
2023-05-17T04:45:34.042Z,9.75
2023-05-17T04:48:00.855Z,9.72
2023-05-17T04:50:28.050Z,9.68
2023-05-17T04:52:54.520Z,9.66
2023-05-17T04:55:21.367Z,9.70
2023-05-17T04:57:47.825Z,9.72
2023-05-17T05:00:15.642Z,9.75
2023-05-17T05:02:42.625Z,9.80
2023-05-17T05:05:12.289Z,9.88
2023-05-17T05:07:40.085Z,9.92
2023-05-17T05:10:07.392Z,10.02
2023-05-17T05:12:33.878Z,10.09
2023-05-17T05:15:01.213Z,10.15
2023-05-17T05:17:29.504Z,10.19
2023-05-17T05:19:56.301Z,10.14
2023-05-17T05:22:22.795Z,10.14
2023-05-17T05:24:49.283Z,10.17
2023-05-17T05:27:16.036Z,10.22
2023-05-17T05:29:42.667Z,10.27
2023-05-17T05:32:09.275Z,10.33
2023-05-17T05:34:35.752Z,10.35
2023-05-17T05:37:02.227Z,10.39
2023-05-17T05:39:29.056Z,10.41
2023-05-17T05:41:55.579Z,10.47
2023-05-17T05:44:23.374Z,10.46
2023-05-17T05:46:51.746Z,10.57
2023-05-17T05:49:19.500Z,10.63
2023-05-17T05:51:45.938Z,10.72
2023-05-17T05:54:13.722Z,10.80
2023-05-17T05:56:40.482Z,10.85
2023-05-17T05:59:07.204Z,10.89
2023-05-17T06:01:34.190Z,10.95
2023-05-17T06:04:00.730Z,10.99
2023-05-17T06:06:27.324Z,11.00
2023-05-17T06:08:53.943Z,11.05
2023-05-17T06:11:21.216Z,11.05
2023-05-17T06:13:50.770Z,11.12
2023-05-17T06:16:17.449Z,11.15
2023-05-17T06:18:43.942Z,11.22
2023-05-17T06:21:13.308Z,11.28
2023-05-17T06:23:39.828Z,11.33
2023-05-17T06:26:10.435Z,11.44
2023-05-17T06:28:37.991Z,11.47
2023-05-17T06:31:04.643Z,11.44
2023-05-17T06:33:31.207Z,11.41
2023-05-17T06:38:32.292Z,11.37
2023-05-17T06:40:58.804Z,11.30
2023-05-17T06:43:25.282Z,11.30
2023-05-17T06:45:51.853Z,11.27
2023-05-17T06:48:18.414Z,11.34
2023-05-17T06:50:45.034Z,11.35
2023-05-17T06:53:11.679Z,11.38
2023-05-17T06:55:38.359Z,11.41
2023-05-17T06:58:04.901Z,11.47
2023-05-17T07:00:31.935Z,11.46
2023-05-17T07:02:58.841Z,11.55
2023-05-17T07:05:25.571Z,11.43
2023-05-17T07:07:52.378Z,11.47
2023-05-17T07:10:21.287Z,11.47
2023-05-17T07:12:48.005Z,11.47
2023-05-17T07:15:14.719Z,11.58
2023-05-17T07:17:41.737Z,11.74
2023-05-17T07:20:08.729Z,11.80
2023-05-17T07:22:37.249Z,11.93
2023-05-17T07:25:05.122Z,11.95
2023-05-17T07:27:31.559Z,12.05
2023-05-17T07:29:58.057Z,12.07
2023-05-17T07:32:24.537Z,12.16
2023-05-17T07:34:51.124Z,12.15
2023-05-17T07:37:17.907Z,12.22
2023-05-17T07:39:44.452Z,12.20
2023-05-17T07:42:10.989Z,12.25
2023-05-17T07:44:37.506Z,12.22
2023-05-17T07:47:04.131Z,12.21
2023-05-17T07:49:31.319Z,12.27
2023-05-17T07:52:00.273Z,12.36
2023-05-17T07:54:29.897Z,12.51
2023-05-17T07:56:56.641Z,12.63
2023-05-17T07:59:23.489Z,12.69
2023-05-17T08:01:50.582Z,12.77
2023-05-17T08:04:17.376Z,12.83
2023-05-17T08:06:46.439Z,12.84
2023-05-17T08:09:12.949Z,12.86
2023-05-17T08:11:46.217Z,12.96
2023-05-17T08:14:14.671Z,13.14
2023-05-17T08:16:46.280Z,13.23
2023-05-17T08:19:14.909Z,13.42
2023-05-17T08:21:42.939Z,13.73
2023-05-17T08:24:09.966Z,14.02
2023-05-17T08:26:36.667Z,14.18
2023-05-17T08:29:04.893Z,14.51
2023-05-17T08:31:32.509Z,14.88
2023-05-17T08:33:59.105Z,15.36
2023-05-17T08:36:26.013Z,15.61
2023-05-17T08:38:52.526Z,16.01
2023-05-17T08:41:20.703Z,16.32
2023-05-17T08:43:49.248Z,16.60
2023-05-17T08:46:18.571Z,16.92
2023-05-17T08:48:46.766Z,17.16
2023-05-17T08:51:14.696Z,17.33
2023-05-17T08:53:42.664Z,17.52
2023-05-17T08:56:14.052Z,17.58
2023-05-17T08:58:55.659Z,17.67
2023-05-17T09:01:25.888Z,18.01
2023-05-17T09:03:53.822Z,18.16
2023-05-17T09:06:22.360Z,18.27
2023-05-17T09:08:55.390Z,18.53
2023-05-17T09:11:35.181Z,18.51
2023-05-17T09:14:04.986Z,18.72
2023-05-17T09:16:36.638Z,18.82
2023-05-17T09:19:05.428Z,19.02
2023-05-17T09:21:32.961Z,19.13
2023-05-17T09:26:41.602Z,19.46
2023-05-17T09:29:10.620Z,19.53
2023-05-17T09:31:37.302Z,19.77
2023-05-17T09:34:04.018Z,19.20
2023-05-17T09:36:30.538Z,19.11
2023-05-17T09:39:02.150Z,19.20
2023-05-17T09:41:30.787Z,19.45
2023-05-17T09:44:01.352Z,19.45
2023-05-17T09:46:34.983Z,19.62
2023-05-17T09:49:03.187Z,19.69
2023-05-17T09:51:38.983Z,19.85
2023-05-17T09:54:10.040Z,19.81
2023-05-17T09:56:36.965Z,19.42
2023-05-17T09:59:10.398Z,19.62
2023-05-17T10:01:41.180Z,19.88
2023-05-17T10:04:10.606Z,20.02
2023-05-17T10:09:14.227Z,20.12
2023-05-17T10:11:44.355Z,20.03
2023-05-17T10:14:22.973Z,19.99
2023-05-17T10:16:51.348Z,20.14
2023-05-17T10:19:20.251Z,19.77
2023-05-17T10:21:53.913Z,19.25
2023-05-17T10:24:23.946Z,19.20
2023-05-17T10:26:51.206Z,19.41
2023-05-17T10:29:21.057Z,19.52
2023-05-17T10:31:50.396Z,19.65
2023-05-17T10:34:18.898Z,19.70
2023-05-17T10:36:46.495Z,19.64
2023-05-17T10:39:13.185Z,19.97
2023-05-17T10:41:46.478Z,20.16
2023-05-17T10:44:14.911Z,20.19
2023-05-17T10:46:51.486Z,20.09
2023-05-17T10:49:22.123Z,20.19
2023-05-17T10:51:51.105Z,20.14
2023-05-17T10:54:18.711Z,20.39
2023-05-17T10:56:50.892Z,20.64
2023-05-17T10:59:26.978Z,20.98
2023-05-17T11:02:05.540Z,21.00
2023-05-17T11:04:32.739Z,20.54
2023-05-17T11:07:17.836Z,20.68
2023-05-17T11:09:45.721Z,20.82
2023-05-17T11:12:13.921Z,20.92
2023-05-17T11:14:47.513Z,20.83
2023-05-17T11:17:14.701Z,20.68
2023-05-17T11:19:59.425Z,20.74
2023-05-17T11:22:27.609Z,20.84
2023-05-17T11:24:56.702Z,21.11
2023-05-17T11:27:27.614Z,21.06
2023-05-17T11:30:00.207Z,21.30
2023-05-17T11:32:32.233Z,21.70
2023-05-17T11:35:02.222Z,22.09
2023-05-17T11:37:29.840Z,22.28
2023-05-17T11:40:08.134Z,22.18
2023-05-17T11:42:36.421Z,22.05
2023-05-17T11:45:02.954Z,22.32
2023-05-17T11:47:30.090Z,21.94
2023-05-17T11:50:01.233Z,22.03
2023-05-17T11:52:29.404Z,22.19
2023-05-17T11:54:58.092Z,22.07
2023-05-17T11:57:32.448Z,22.47
2023-05-17T12:00:01.785Z,22.57
2023-05-17T12:02:32.619Z,22.31
2023-05-17T12:04:59.359Z,22.19
2023-05-17T12:07:26.451Z,22.38
2023-05-17T12:09:53.084Z,22.50
2023-05-17T12:12:21.996Z,22.49
2023-05-17T12:14:48.965Z,22.26
2023-05-17T12:17:29.381Z,22.33
2023-05-17T12:19:56.009Z,22.14
2023-05-17T12:22:22.660Z,22.00
2023-05-17T12:24:49.194Z,22.04
2023-05-17T12:27:25.121Z,22.35
2023-05-17T12:29:51.626Z,22.42
2023-05-17T12:32:18.182Z,22.59
2023-05-17T12:34:46.049Z,22.75
2023-05-17T12:37:13.202Z,22.49
2023-05-17T12:39:40.582Z,22.03
2023-05-17T12:42:07.933Z,21.97
2023-05-17T12:44:34.592Z,22.01
2023-05-17T12:47:03.079Z,21.91
2023-05-17T12:49:29.660Z,21.79
2023-05-17T12:51:56.238Z,21.87
2023-05-17T12:54:28.012Z,22.07
2023-05-17T12:56:55.414Z,22.23
2023-05-17T12:59:25.370Z,22.30
2023-05-17T13:01:55.723Z,22.63
2023-05-17T13:04:31.765Z,22.82
2023-05-17T13:07:03.674Z,22.89
2023-05-17T13:09:32.127Z,23.13
2023-05-17T13:12:05.934Z,23.22
2023-05-17T13:14:47.387Z,23.16
2023-05-17T13:17:25.062Z,23.24
2023-05-17T13:19:52.047Z,23.23
2023-05-17T13:22:18.935Z,23.14
2023-05-17T13:24:45.618Z,23.16
2023-05-17T13:27:12.465Z,23.20
2023-05-17T13:29:41.705Z,23.09
2023-05-17T13:32:10.043Z,23.14
2023-05-17T13:34:36.929Z,23.26
2023-05-17T13:37:04.874Z,23.29
2023-05-17T13:39:31.428Z,23.41
2023-05-17T13:41:58.998Z,23.54
2023-05-17T13:44:25.756Z,23.45
2023-05-17T13:46:52.386Z,23.58
2023-05-17T13:49:18.942Z,23.63
2023-05-17T13:51:45.910Z,23.83
2023-05-17T13:54:12.864Z,23.99
2023-05-17T13:56:39.335Z,24.07
2023-05-17T13:59:06.048Z,24.24
2023-05-17T14:01:32.551Z,24.35
2023-05-17T14:04:00.590Z,24.16
2023-05-17T14:06:27.571Z,24.07
2023-05-17T14:08:55.467Z,24.31
2023-05-17T14:11:21.956Z,24.40
2023-05-17T14:13:48.575Z,24.30
2023-05-17T14:16:15.130Z,24.26
2023-05-17T14:18:41.792Z,24.40
2023-05-17T14:21:08.705Z,24.45
2023-05-17T14:23:36.227Z,24.33
2023-05-17T14:26:06.985Z,24.20
2023-05-17T14:28:36.102Z,24.17
2023-05-17T14:31:02.606Z,23.91
2023-05-17T14:33:29.181Z,24.07
2023-05-17T14:35:56.165Z,24.07
2023-05-17T14:38:23.505Z,24.33
2023-05-17T14:40:50.056Z,24.24
2023-05-17T14:43:16.817Z,24.12
2023-05-17T14:45:43.312Z,24.22
2023-05-17T14:48:09.970Z,23.98
2023-05-17T14:50:36.448Z,23.85
2023-05-17T14:53:03.180Z,23.95
2023-05-17T14:55:30.107Z,24.11
2023-05-17T14:57:57.931Z,24.28
2023-05-17T15:00:24.794Z,24.05
2023-05-17T15:02:51.601Z,24.04
2023-05-17T15:05:18.621Z,23.97
2023-05-17T15:07:45.389Z,23.90
2023-05-17T15:10:13.077Z,23.86
2023-05-17T15:12:39.543Z,24.00
2023-05-17T15:15:06.840Z,23.99
2023-05-17T15:17:33.862Z,24.00
2023-05-17T15:20:00.530Z,23.82
2023-05-17T15:22:27.166Z,23.83
2023-05-17T15:24:54.345Z,23.93
2023-05-17T15:27:21.553Z,24.04
2023-05-17T15:29:48.003Z,23.95
2023-05-17T15:32:14.654Z,23.81
2023-05-17T15:34:41.414Z,23.91
2023-05-17T15:37:07.974Z,23.97
2023-05-17T15:39:34.477Z,24.01
2023-05-17T15:42:01.004Z,24.06
2023-05-17T15:44:27.638Z,24.12
2023-05-17T15:46:54.322Z,24.15
2023-05-17T15:49:21.088Z,24.21
2023-05-17T15:51:47.797Z,24.01
2023-05-17T15:54:14.993Z,24.08
2023-05-17T15:56:42.045Z,23.92
2023-05-17T15:59:08.763Z,23.93
2023-05-17T16:01:35.613Z,23.75
2023-05-17T16:04:02.127Z,23.55
2023-05-17T16:06:34.917Z,23.55
2023-05-17T16:09:03.006Z,23.57
2023-05-17T16:11:29.576Z,23.62
2023-05-17T16:13:57.270Z,23.63
2023-05-17T16:16:24.069Z,23.47
2023-05-17T16:18:51.003Z,23.16
2023-05-17T16:21:17.608Z,23.15
2023-05-17T16:23:44.454Z,22.81
2023-05-17T16:26:11.234Z,22.68
2023-05-17T16:28:38.161Z,22.59
2023-05-17T16:31:05.963Z,22.60
2023-05-17T16:33:32.572Z,22.57
2023-05-17T16:35:59.346Z,22.56
2023-05-17T16:38:26.428Z,22.47
2023-05-17T16:40:52.976Z,22.29
2023-05-17T16:43:19.634Z,22.11
2023-05-17T16:45:46.535Z,22.04
2023-05-17T16:48:14.396Z,22.06
2023-05-17T16:50:42.200Z,21.84
2023-05-17T16:53:09.101Z,21.67
2023-05-17T16:55:36.574Z,21.56
2023-05-17T16:58:03.823Z,21.31
2023-05-17T17:00:34.365Z,21.19
2023-05-17T17:03:07.295Z,21.03
2023-05-17T17:05:36.130Z,20.91
2023-05-17T17:08:02.786Z,20.81
2023-05-17T17:10:29.663Z,20.65
2023-05-17T17:12:56.455Z,20.63
2023-05-17T17:15:23.744Z,20.46
2023-05-17T17:17:53.670Z,20.37
2023-05-17T17:20:26.535Z,20.24
2023-05-17T17:22:53.270Z,20.11
2023-05-17T17:25:19.845Z,19.91
2023-05-17T17:27:51.088Z,19.81
2023-05-17T17:30:19.620Z,19.70
2023-05-17T17:32:46.776Z,19.61
2023-05-17T17:35:13.647Z,19.43
2023-05-17T17:37:41.657Z,19.33
2023-05-17T17:40:08.877Z,19.20
2023-05-17T17:42:35.448Z,19.08
2023-05-17T17:45:03.489Z,18.98
2023-05-17T17:47:32.962Z,18.91
2023-05-17T17:49:59.459Z,18.78
2023-05-17T17:52:27.871Z,18.69
2023-05-17T17:54:54.417Z,18.49
2023-05-17T17:57:22.844Z,18.36
2023-05-17T17:59:50.905Z,18.28
2023-05-17T18:02:17.407Z,18.11
2023-05-17T18:04:44.186Z,18.03
2023-05-17T18:07:12.634Z,18.02
2023-05-17T18:09:39.359Z,17.87
2023-05-17T18:12:06.269Z,17.81
2023-05-17T18:14:33.705Z,17.71
2023-05-17T18:17:00.319Z,17.65
2023-05-17T18:19:26.836Z,17.47
2023-05-17T18:21:53.722Z,17.39
2023-05-17T18:24:20.210Z,17.32
2023-05-17T18:26:46.936Z,17.25
2023-05-17T18:29:13.628Z,17.25
2023-05-17T18:31:40.102Z,17.16
2023-05-17T18:34:06.547Z,17.06
2023-05-17T18:36:33.371Z,16.89
2023-05-17T18:39:00.807Z,16.82
2023-05-17T18:41:27.284Z,16.84
2023-05-17T18:43:53.991Z,16.74
2023-05-17T18:46:20.634Z,16.61
2023-05-17T18:48:47.144Z,16.55
2023-05-17T18:51:15.745Z,16.49
2023-05-17T18:53:42.870Z,16.31
2023-05-17T18:56:09.486Z,16.31
2023-05-17T18:58:36.170Z,16.24
2023-05-17T19:01:03.034Z,16.17
2023-05-17T19:03:29.714Z,16.07
2023-05-17T19:05:56.394Z,15.95
2023-05-17T19:08:23.318Z,15.88
2023-05-17T19:10:49.948Z,15.89
2023-05-17T19:13:16.508Z,15.76
2023-05-17T19:15:43.024Z,15.69
2023-05-17T19:18:09.643Z,15.64
2023-05-17T19:20:36.718Z,15.54
2023-05-17T19:23:03.672Z,15.39
2023-05-17T19:25:30.813Z,15.28
2023-05-17T19:27:57.357Z,15.22
2023-05-17T19:30:24.193Z,15.16
2023-05-17T19:32:50.773Z,15.06
2023-05-17T19:35:17.444Z,15.02
2023-05-17T19:37:43.920Z,15.03
2023-05-17T19:40:11.100Z,14.98
2023-05-17T19:42:38.949Z,14.89
2023-05-17T19:45:09.796Z,14.85
2023-05-17T19:47:36.665Z,14.82
2023-05-17T19:50:03.379Z,14.70
2023-05-17T19:52:30.213Z,14.68
2023-05-17T19:54:56.840Z,14.57
2023-05-17T19:57:23.671Z,14.43
2023-05-17T19:59:52.176Z,14.31
2023-05-17T20:02:19.285Z,14.20
2023-05-17T20:04:46.795Z,14.04
2023-05-17T20:07:13.336Z,13.96
2023-05-17T20:09:40.077Z,13.92
2023-05-17T20:12:07.270Z,13.82
2023-05-17T20:14:33.786Z,13.81
2023-05-17T20:17:00.698Z,13.79
2023-05-17T20:19:27.401Z,13.76
2023-05-17T20:21:56.484Z,13.64
2023-05-17T20:24:24.739Z,13.62
2023-05-17T20:26:51.374Z,13.49
2023-05-17T20:29:17.912Z,13.41
2023-05-17T20:31:44.402Z,13.34
2023-05-17T20:34:11.023Z,13.29
2023-05-17T20:36:37.529Z,13.26
2023-05-17T20:39:04.036Z,13.18
2023-05-17T20:41:30.562Z,13.08
2023-05-17T20:43:56.994Z,13.06
2023-05-17T20:46:23.750Z,13.09
2023-05-17T20:48:50.653Z,12.98
2023-05-17T20:51:17.982Z,12.87
2023-05-17T20:53:46.217Z,12.80
2023-05-17T20:56:14.165Z,12.70
2023-05-17T20:58:40.759Z,12.62
2023-05-17T21:01:07.536Z,12.60
2023-05-17T21:03:35.012Z,12.54
2023-05-17T21:06:02.474Z,12.54
2023-05-17T21:08:29.006Z,12.50
2023-05-17T21:10:56.196Z,12.41
2023-05-17T21:13:25.479Z,12.44
2023-05-17T21:15:53.348Z,12.35
2023-05-17T21:18:19.923Z,12.33
2023-05-17T21:20:46.760Z,12.28
2023-05-17T21:23:13.352Z,12.23
2023-05-17T21:25:39.946Z,12.23
2023-05-17T21:28:07.448Z,12.19
2023-05-17T21:30:34.117Z,12.05
2023-05-17T21:33:00.998Z,12.03
2023-05-17T21:35:27.621Z,12.00
2023-05-17T21:37:54.026Z,11.91
2023-05-17T21:40:20.834Z,11.91
2023-05-17T21:42:47.852Z,11.90
2023-05-17T21:45:14.785Z,11.82
2023-05-17T21:47:41.453Z,11.70
2023-05-17T21:50:08.230Z,11.67
2023-05-17T21:52:34.764Z,11.64
2023-05-17T21:55:01.397Z,11.58
2023-05-17T21:57:27.882Z,11.55
2023-05-17T21:59:54.395Z,11.51
2023-05-17T22:02:21.031Z,11.45
2023-05-17T22:04:47.617Z,11.39
2023-05-17T22:07:14.184Z,11.36
2023-05-17T22:09:40.694Z,11.28
2023-05-17T22:12:08.659Z,11.23
2023-05-17T22:14:36.377Z,11.31
2023-05-17T22:17:08.053Z,11.22
2023-05-17T22:19:40.402Z,11.21
2023-05-17T22:22:07.906Z,11.21
2023-05-17T22:24:34.487Z,11.17
2023-05-17T22:27:01.338Z,11.11
2023-05-17T22:29:28.144Z,11.04
2023-05-17T22:31:54.832Z,10.98
2023-05-17T22:34:21.864Z,10.94
2023-05-17T22:36:49.183Z,10.87
2023-05-17T22:39:15.624Z,10.79
2023-05-17T22:41:42.270Z,10.76
2023-05-17T22:44:08.831Z,10.73
2023-05-17T22:46:35.332Z,10.67
2023-05-17T22:49:01.872Z,10.63
2023-05-17T22:51:30.122Z,10.63
2023-05-17T22:53:56.903Z,10.52
2023-05-17T22:56:23.496Z,10.42
2023-05-17T22:58:49.990Z,10.42
2023-05-17T23:01:16.588Z,10.41
2023-05-17T23:03:43.254Z,10.38
2023-05-17T23:06:10.525Z,10.38
2023-05-17T23:08:37.233Z,10.38
2023-05-17T23:11:05.317Z,10.37
2023-05-17T23:13:31.802Z,10.37
2023-05-17T23:15:58.443Z,10.37
2023-05-17T23:18:27.388Z,10.28
2023-05-17T23:20:54.153Z,10.33
2023-05-17T23:23:23.050Z,10.27
2023-05-17T23:25:50.808Z,10.22
2023-05-17T23:28:18.744Z,10.19
2023-05-17T23:30:48.727Z,10.18
2023-05-17T23:33:15.436Z,10.13
2023-05-17T23:35:41.973Z,10.17
2023-05-17T23:38:08.424Z,10.13
2023-05-17T23:40:34.901Z,10.09
2023-05-17T23:43:01.497Z,10.01
2023-05-17T23:45:28.185Z,9.93
2023-05-17T23:47:54.908Z,9.89
2023-05-17T23:50:21.649Z,9.84
2023-05-17T23:52:48.163Z,9.81
2023-05-17T23:55:14.599Z,9.81
2023-05-17T23:57:42.484Z,9.77
